Union Center, Wisconsin
Current Conditions -  °F | °C
As of 9:58 PM on Saturday 20 Dec 2014 (Local Time) from KVOK Reporting Station
Overcast Overcast  
Wind Chill: 23°   Ceiling: 4000
Heat Index: 29°   Visibility: 9mi
Dew Point: 29°   Wind: 7mph
Humidity: 100%   Direction: 140°SE
Pressure: 30.17"   Gusts: NA
Location:  43.69°N, 90.27°W
Report Text: KVOK 210358Z AUTO 14006KT 9SM R27/5500FT SCT011 OVC040 M01/M01 A3017 RMK AO2 SLP231 T10141014
Loading
Personal Weather Stations






























Interactive Weather Map New forecast layout! Learn more

10-Day Weather Forecast

Advertisements
Track Severe Weather on mobile